Time;durP1;ratioP1;P1;durP2;ratioP2;P2;SDS_P1;SDS_P2;PMS_P1;PMS_P2;Temp;Humidity;BMP_temperature;BMP_pressure;BME280_temperature;BME280_humidity;BME280_pressure;Samples;Min_cycle;Max_cycle;Signal;HPM_P1;HPM_P2
2022/05/05 00:00:02;;;;;;;9.65;5.15;;;;;;;;;;4950915;28;20477;-69
2022/05/05 00:02:31;;;;;;;14.38;5.55;;;;;;;;;;4949954;28;20058;-69
2022/05/05 00:05:00;;;;;;;12.90;6.00;;;;;;;;;;4951160;28;20051;-69
2022/05/05 00:07:27;;;;;;;15.50;5.88;;;;;;;;;;4941118;28;20058;-69
2022/05/05 00:09:54;;;;;;;10.00;5.30;;;;;;;;;;4945517;28;20062;-69
2022/05/05 00:15:07;;;;;;;13.00;5.25;;;;;;;;;;4946878;28;20135;-69
2022/05/05 00:17:34;;;;;;;13.68;5.70;;;;;;;;;;4942730;28;20157;-69
2022/05/05 00:20:04;;;;;;;15.68;5.65;;;;;;;;;;4945858;28;20058;-69
2022/05/05 00:22:31;;;;;;;14.45;6.03;;;;;;;;;;4938349;28;20498;-69
2022/05/05 00:24:58;;;;;;;15.95;5.57;;;;;;;;;;4963124;28;20054;-69
2022/05/05 00:27:25;;;;;;;12.23;5.53;;;;;;;;;;4939103;28;20071;-69
2022/05/05 00:29:54;;;;;;;13.07;5.53;;;;;;;;;;4944923;28;20493;-69
2022/05/05 00:32:21;;;;;;;14.38;6.05;;;;;;;;;;4944150;28;20430;-69
2022/05/05 00:34:48;;;;;;;17.35;6.28;;;;;;;;;;4940526;28;20134;-69
2022/05/05 00:37:17;;;;;;;14.32;6.85;;;;;;;;;;4945285;28;20050;-69
2022/05/05 00:39:44;;;;;;;11.02;6.05;;;;;;;;;;4943047;28;20055;-69
2022/05/05 00:42:12;;;;;;;12.10;5.65;;;;;;;;;;4943297;28;20054;-69
2022/05/05 00:44:40;;;;;;;12.48;6.20;;;;;;;;;;4944319;28;20098;-69
2022/05/05 00:47:07;;;;;;;9.85;5.38;;;;;;;;;;4951944;28;20154;-69
2022/05/05 00:49:34;;;;;;;14.45;6.45;;;;;;;;;;4944515;28;20683;-69
2022/05/05 00:52:01;;;;;;;12.50;6.25;;;;;;;;;;4949055;28;20110;-69
2022/05/05 00:54:30;;;;;;;12.85;6.70;;;;;;;;;;4942161;28;20109;-69
2022/05/05 00:56:57;;;;;;;14.43;6.18;;;;;;;;;;4945318;28;20058;-69
2022/05/05 00:59:24;;;;;;;11.48;5.78;;;;;;;;;;4940939;28;20082;-69
2022/05/05 01:01:52;;;;;;;13.77;6.35;;;;;;;;;;4944763;28;20125;-67
2022/05/05 01:04:20;;;;;;;13.55;6.53;;;;;;;;;;4948763;28;20062;-67
2022/05/05 01:06:47;;;;;;;16.02;6.30;;;;;;;;;;4945515;28;20081;-67
2022/05/05 01:09:14;;;;;;;12.25;6.13;;;;;;;;;;4947645;28;20051;-67
2022/05/05 01:11:43;;;;;;;12.95;5.70;;;;;;;;;;4946596;28;20122;-67
2022/05/05 01:14:10;;;;;;;14.60;7.18;;;;;;;;;;4940892;28;20102;-67
2022/05/05 01:16:38;;;;;;;15.52;7.28;;;;;;;;;;4938049;28;20062;-67
2022/05/05 01:19:05;;;;;;;16.42;7.20;;;;;;;;;;4948430;28;20055;-67
2022/05/05 01:21:34;;;;;;;14.32;7.13;;;;;;;;;;4967401;28;20061;-67
2022/05/05 01:24:01;;;;;;;15.30;6.70;;;;;;;;;;4944441;28;20058;-67
2022/05/05 01:29:13;;;;;;;16.13;7.60;;;;;;;;;;4948053;28;20188;-67
2022/05/05 01:31:43;;;;;;;13.73;7.20;;;;;;;;;;4955098;28;20061;-67
2022/05/05 01:34:10;;;;;;;13.80;6.72;;;;;;;;;;4949703;28;20468;-67
2022/05/05 01:36:39;;;;;;;13.30;7.10;;;;;;;;;;4942740;28;20050;-67
2022/05/05 01:39:06;;;;;;;17.27;7.43;;;;;;;;;;4937568;28;20510;-67
2022/05/05 01:41:36;;;;;;;13.77;7.30;;;;;;;;;;4943239;28;20055;-67
2022/05/05 01:44:03;;;;;;;14.00;6.70;;;;;;;;;;4941226;28;20051;-67
2022/05/05 01:46:30;;;;;;;14.05;7.32;;;;;;;;;;4944135;28;20058;-67
2022/05/05 01:48:57;;;;;;;17.20;7.50;;;;;;;;;;4945151;28;20062;-67
2022/05/05 01:51:25;;;;;;;19.02;7.57;;;;;;;;;;4942337;28;20078;-67
2022/05/05 01:53:53;;;;;;;15.07;7.15;;;;;;;;;;4947095;28;20054;-67
2022/05/05 01:56:21;;;;;;;21.38;8.18;;;;;;;;;;4968748;28;20106;-67
2022/05/05 01:58:48;;;;;;;17.30;8.55;;;;;;;;;;4966368;28;20055;-67
2022/05/05 02:01:15;;;;;;;22.70;8.68;;;;;;;;;;4941340;28;20576;-67
2022/05/05 02:03:42;;;;;;;11.68;7.45;;;;;;;;;;4963880;28;20070;-66
2022/05/05 02:06:09;;;;;;;13.93;8.25;;;;;;;;;;4940436;28;20083;-67
2022/05/05 02:08:37;;;;;;;16.02;8.30;;;;;;;;;;4959959;28;20090;-67
2022/05/05 02:11:06;;;;;;;14.32;7.90;;;;;;;;;;4944943;28;20161;-67
2022/05/05 02:13:33;;;;;;;13.82;7.43;;;;;;;;;;4945831;28;20568;-67
2022/05/05 02:16:00;;;;;;;16.67;8.57;;;;;;;;;;4945520;28;20062;-67
2022/05/05 02:18:27;;;;;;;18.70;7.88;;;;;;;;;;4962931;28;20048;-67
2022/05/05 02:20:55;;;;;;;18.45;8.57;;;;;;;;;;4937641;28;20054;-67
2022/05/05 02:23:22;;;;;;;20.50;8.30;;;;;;;;;;4961585;28;20062;-67
2022/05/05 02:25:50;;;;;;;18.73;8.98;;;;;;;;;;4946096;28;20054;-67
2022/05/05 02:28:18;;;;;;;14.70;8.40;;;;;;;;;;4944726;28;20070;-67
2022/05/05 02:30:45;;;;;;;17.88;9.13;;;;;;;;;;4946079;28;20125;-67
2022/05/05 02:33:13;;;;;;;16.27;8.77;;;;;;;;;;4948342;28;20110;-67
2022/05/05 02:35:40;;;;;;;17.63;8.25;;;;;;;;;;4948033;28;20260;-67
2022/05/05 02:40:52;;;;;;;17.60;8.20;;;;;;;;;;4962311;28;20405;-67
2022/05/05 02:43:21;;;;;;;18.30;8.80;;;;;;;;;;4951753;28;20437;-67
2022/05/05 02:45:48;;;;;;;15.68;8.43;;;;;;;;;;4949338;28;20050;-67
2022/05/05 02:48:15;;;;;;;17.27;8.60;;;;;;;;;;4943261;28;20081;-67
2022/05/05 02:50:42;;;;;;;19.55;8.32;;;;;;;;;;4949850;28;20182;-67
2022/05/05 02:55:51;;;;;;;17.70;7.80;;;;;;;;;;4958389;28;20424;-67
2022/05/05 02:58:18;;;;;;;16.88;8.32;;;;;;;;;;4944898;28;20051;-67
2022/05/05 03:00:46;;;;;;;10.63;8.10;;;;;;;;;;4940703;28;20055;-67
2022/05/05 03:03:14;;;;;;;17.73;8.48;;;;;;;;;;4943983;28;20450;-67
2022/05/05 03:05:41;;;;;;;14.48;8.55;;;;;;;;;;4947111;28;20058;-67
2022/05/05 03:08:08;;;;;;;12.27;7.90;;;;;;;;;;4971406;28;20105;-67
2022/05/05 03:10:36;;;;;;;15.93;8.82;;;;;;;;;;4940145;28;20054;-67
2022/05/05 03:13:03;;;;;;;14.70;8.80;;;;;;;;;;4947443;28;20058;-67
2022/05/05 03:15:30;;;;;;;15.70;8.50;;;;;;;;;;4943337;28;20062;-67
2022/05/05 03:17:59;;;;;;;19.08;8.05;;;;;;;;;;4947638;28;20062;-66
2022/05/05 03:20:26;;;;;;;14.63;8.32;;;;;;;;;;4946483;28;20043;-66
2022/05/05 03:22:53;;;;;;;15.43;7.93;;;;;;;;;;4948969;28;20078;-67
2022/05/05 03:25:21;;;;;;;18.67;9.52;;;;;;;;;;4956814;28;20051;-67
2022/05/05 03:27:49;;;;;;;16.17;9.00;;;;;;;;;;4944403;28;20417;-67
2022/05/05 03:30:16;;;;;;;18.42;9.80;;;;;;;;;;4944964;28;21299;-67
2022/05/05 03:32:44;;;;;;;18.20;8.88;;;;;;;;;;4946056;28;20062;-67
2022/05/05 03:35:12;;;;;;;13.07;7.95;;;;;;;;;;4958848;28;20081;-67
2022/05/05 03:37:39;;;;;;;16.80;9.52;;;;;;;;;;4961954;28;20061;-67
2022/05/05 03:40:07;;;;;;;17.65;8.75;;;;;;;;;;4941324;28;20101;-67
2022/05/05 03:42:34;;;;;;;12.75;7.88;;;;;;;;;;4967196;28;20054;-67
2022/05/05 03:45:01;;;;;;;14.55;8.02;;;;;;;;;;4941260;29;20502;-66
2022/05/05 03:47:29;;;;;;;12.82;7.97;;;;;;;;;;4948420;28;20149;-66
2022/05/05 03:49:56;;;;;;;13.13;7.85;;;;;;;;;;4941179;28;20118;-67
2022/05/05 03:52:24;;;;;;;13.55;7.80;;;;;;;;;;4944537;28;20099;-67
2022/05/05 03:54:51;;;;;;;15.95;7.47;;;;;;;;;;4948789;28;20062;-66
2022/05/05 03:57:19;;;;;;;17.38;8.65;;;;;;;;;;4940883;28;20062;-66
2022/05/05 03:59:46;;;;;;;12.50;8.00;;;;;;;;;;4943842;28;20127;-66
2022/05/05 04:02:13;;;;;;;12.27;8.73;;;;;;;;;;4946180;28;20059;-66
2022/05/05 04:04:40;;;;;;;19.88;8.50;;;;;;;;;;4938538;28;20724;-67
2022/05/05 04:07:07;;;;;;;17.33;8.80;;;;;;;;;;4939447;29;20059;-67
2022/05/05 04:09:36;;;;;;;23.73;8.27;;;;;;;;;;4920287;29;20122;-67
2022/05/05 04:12:03;;;;;;;15.68;9.27;;;;;;;;;;4924722;29;20122;-67
2022/05/05 04:14:33;;;;;;;14.30;8.70;;;;;;;;;;4924871;29;20063;-67
2022/05/05 04:17:01;;;;;;;13.70;8.30;;;;;;;;;;4921106;29;20067;-67
2022/05/05 04:19:28;;;;;;;14.70;8.43;;;;;;;;;;4925615;29;20051;-67
2022/05/05 04:21:55;;;;;;;17.75;8.13;;;;;;;;;;4919500;29;20051;-67
2022/05/05 04:24:22;;;;;;;16.02;8.85;;;;;;;;;;4917271;29;20059;-67
2022/05/05 04:26:51;;;;;;;16.63;8.02;;;;;;;;;;4919415;29;20052;-67
2022/05/05 04:29:18;;;;;;;15.85;8.50;;;;;;;;;;4917704;29;20052;-67
2022/05/05 04:31:46;;;;;;;14.70;7.95;;;;;;;;;;4926052;29;20074;-67
2022/05/05 04:34:13;;;;;;;14.43;7.47;;;;;;;;;;4919780;29;20055;-67
2022/05/05 04:36:40;;;;;;;11.32;6.60;;;;;;;;;;4920739;29;20091;-67
2022/05/05 04:39:08;;;;;;;16.92;8.30;;;;;;;;;;4920423;29;20517;-67
2022/05/05 04:41:35;;;;;;;16.77;7.82;;;;;;;;;;4921972;29;20052;-67
2022/05/05 04:44:03;;;;;;;12.95;7.90;;;;;;;;;;4920768;29;20071;-67
2022/05/05 04:46:31;;;;;;;15.70;7.90;;;;;;;;;;4916996;29;20059;-66
2022/05/05 04:48:58;;;;;;;15.00;7.07;;;;;;;;;;4939374;28;20087;-66
2022/05/05 04:51:26;;;;;;;13.25;7.32;;;;;;;;;;4922611;29;20143;-67
2022/05/05 04:53:53;;;;;;;15.77;8.35;;;;;;;;;;4924207;29;20459;-67
2022/05/05 04:56:20;;;;;;;19.00;8.07;;;;;;;;;;4920201;29;20056;-67
2022/05/05 04:58:47;;;;;;;16.50;8.00;;;;;;;;;;4926529;29;20111;-67
2022/05/05 05:01:16;;;;;;;15.23;7.45;;;;;;;;;;4918431;29;20635;-66
2022/05/05 05:03:43;;;;;;;14.30;8.20;;;;;;;;;;4920702;29;20151;-67
2022/05/05 05:06:11;;;;;;;19.95;8.15;;;;;;;;;;4919864;29;20514;-67
2022/05/05 05:08:38;;;;;;;16.65;8.75;;;;;;;;;;4944712;28;20091;-67
2022/05/05 05:11:05;;;;;;;17.00;7.72;;;;;;;;;;4943744;28;20062;-67
2022/05/05 05:13:32;;;;;;;15.95;8.18;;;;;;;;;;4943116;28;20051;-67
2022/05/05 05:15:59;;;;;;;15.43;7.30;;;;;;;;;;4947322;28;20433;-67
2022/05/05 05:18:28;;;;;;;15.10;7.40;;;;;;;;;;4947618;28;20069;-67
2022/05/05 05:20:55;;;;;;;19.52;8.55;;;;;;;;;;4943876;28;20051;-67
2022/05/05 05:23:22;;;;;;;22.52;8.73;;;;;;;;;;4963651;28;20517;-67
2022/05/05 05:25:50;;;;;;;21.50;7.63;;;;;;;;;;4940081;28;20134;-67
2022/05/05 05:28:17;;;;;;;16.85;7.47;;;;;;;;;;4945259;28;20054;-67
2022/05/05 05:30:44;;;;;;;16.05;7.35;;;;;;;;;;4954733;28;20134;-67
2022/05/05 05:33:11;;;;;;;14.52;6.43;;;;;;;;;;4936860;28;20055;-67
2022/05/05 05:35:40;;;;;;;18.42;6.72;;;;;;;;;;4940167;28;20109;-67
2022/05/05 05:38:07;;;;;;;12.50;6.57;;;;;;;;;;4948263;28;20537;-67
2022/05/05 05:40:34;;;;;;;13.57;6.00;;;;;;;;;;4938901;28;20047;-67
2022/05/05 05:43:01;;;;;;;12.07;5.22;;;;;;;;;;4938082;28;20050;-67
2022/05/05 05:45:29;;;;;;;15.77;6.05;;;;;;;;;;4947594;28;20046;-67
2022/05/05 05:47:56;;;;;;;11.38;5.50;;;;;;;;;;4944280;28;20050;-67
2022/05/05 05:50:23;;;;;;;13.25;5.60;;;;;;;;;;4942576;28;20498;-67
2022/05/05 05:52:52;;;;;;;12.68;5.90;;;;;;;;;;4942179;28;20058;-67
2022/05/05 05:55:19;;;;;;;14.85;5.55;;;;;;;;;;4941493;28;20059;-67
2022/05/05 05:57:46;;;;;;;16.42;5.63;;;;;;;;;;4941121;28;20549;-67
2022/05/05 06:00:14;;;;;;;15.25;5.38;;;;;;;;;;4947397;28;20449;-67
2022/05/05 06:05:26;;;;;;;12.98;5.15;;;;;;;;;;4942352;28;20077;-67
2022/05/05 06:07:58;;;;;;;11.93;4.90;;;;;;;;;;4945686;28;20059;-67
2022/05/05 06:10:25;;;;;;;15.63;5.68;;;;;;;;;;4962428;28;20074;-67
2022/05/05 06:12:52;;;;;;;13.00;5.03;;;;;;;;;;4943436;28;20118;-67
2022/05/05 06:15:20;;;;;;;13.43;5.35;;;;;;;;;;4962899;28;20125;-67
2022/05/05 06:17:47;;;;;;;16.95;5.80;;;;;;;;;;4957603;28;20062;-67
2022/05/05 06:20:15;;;;;;;19.05;5.93;;;;;;;;;;4941394;28;20050;-67
2022/05/05 06:22:42;;;;;;;14.02;5.43;;;;;;;;;;4942922;28;20062;-67
2022/05/05 06:25:12;;;;;;;11.90;5.38;;;;;;;;;;4937941;28;20487;-67
2022/05/05 06:27:40;;;;;;;13.13;5.53;;;;;;;;;;4944803;28;20051;-67
2022/05/05 06:30:09;;;;;;;15.63;5.40;;;;;;;;;;4939845;28;20055;-67
2022/05/05 06:32:36;;;;;;;11.63;5.40;;;;;;;;;;4946658;28;20604;-67
2022/05/05 06:35:04;;;;;;;14.55;4.93;;;;;;;;;;4946602;28;20370;-67
2022/05/05 06:37:31;;;;;;;18.55;5.55;;;;;;;;;;4947095;28;20061;-67
2022/05/05 06:39:58;;;;;;;17.92;5.20;;;;;;;;;;4948344;28;20129;-67
2022/05/05 06:42:27;;;;;;;16.58;5.85;;;;;;;;;;4946175;28;20109;-67
2022/05/05 06:44:54;;;;;;;13.18;4.85;;;;;;;;;;4961799;28;20051;-67
2022/05/05 06:47:21;;;;;;;14.18;5.57;;;;;;;;;;4946295;28;20050;-67
2022/05/05 06:49:48;;;;;;;14.60;5.75;;;;;;;;;;4946314;28;20051;-67
2022/05/05 06:52:16;;;;;;;16.75;5.35;;;;;;;;;;4961647;28;20063;-67
2022/05/05 06:54:43;;;;;;;10.88;5.00;;;;;;;;;;4941950;28;20063;-67
2022/05/05 06:57:11;;;;;;;17.40;5.15;;;;;;;;;;4948205;28;20054;-67
2022/05/05 06:59:39;;;;;;;14.45;5.32;;;;;;;;;;4939156;28;20062;-67
2022/05/05 07:02:07;;;;;;;20.80;5.43;;;;;;;;;;4940124;28;20461;-68
2022/05/05 07:07:21;;;;;;;15.60;5.60;;;;;;;;;;4930077;28;20060;-67
2022/05/05 07:12:34;;;;;;;12.00;5.20;;;;;;;;;;4920317;29;20167;-67
2022/05/05 07:15:02;;;;;;;16.02;4.82;;;;;;;;;;4921205;29;20067;-67
2022/05/05 07:17:29;;;;;;;15.65;5.25;;;;;;;;;;4919293;29;20415;-67
2022/05/05 07:19:56;;;;;;;13.35;5.65;;;;;;;;;;4919169;29;20067;-67
2022/05/05 07:22:24;;;;;;;12.55;5.05;;;;;;;;;;4920991;28;20051;-67
2022/05/05 07:24:51;;;;;;;15.05;4.78;;;;;;;;;;4920125;29;20713;-68
2022/05/05 07:27:18;;;;;;;14.63;5.22;;;;;;;;;;4920188;29;20055;-67
2022/05/05 07:29:45;;;;;;;14.07;4.75;;;;;;;;;;4925417;29;20059;-67
2022/05/05 07:32:14;;;;;;;13.30;4.75;;;;;;;;;;4919565;29;20235;-67
2022/05/05 07:34:42;;;;;;;13.70;4.82;;;;;;;;;;4916675;29;20060;-67
2022/05/05 07:37:09;;;;;;;13.70;4.53;;;;;;;;;;4917642;29;20048;-67
2022/05/05 07:39:37;;;;;;;18.25;5.15;;;;;;;;;;4917698;29;20056;-67
2022/05/05 07:42:04;;;;;;;13.43;5.10;;;;;;;;;;4921992;29;20078;-67
2022/05/05 07:44:32;;;;;;;11.43;4.68;;;;;;;;;;4918500;29;20130;-67
2022/05/05 07:47:00;;;;;;;11.60;4.50;;;;;;;;;;4915740;29;20048;-67
2022/05/05 07:49:28;;;;;;;12.57;4.25;;;;;;;;;;4922274;28;20063;-68
2022/05/05 07:51:56;;;;;;;11.80;4.18;;;;;;;;;;4921776;29;20050;-67
2022/05/05 07:54:35;;;;;;;9.15;4.78;;;;;;;;;;4922075;29;20123;-68
2022/05/05 07:57:02;;;;;;;12.32;4.53;;;;;;;;;;4920939;29;20062;-67
2022/05/05 07:59:30;;;;;;;15.30;4.38;;;;;;;;;;4921001;29;20047;-67
2022/05/05 08:01:58;;;;;;;8.48;3.80;;;;;;;;;;4926911;28;20059;-67
2022/05/05 08:04:25;;;;;;;10.95;4.35;;;;;;;;;;4920723;29;20107;-67
2022/05/05 08:06:53;;;;;;;12.82;4.72;;;;;;;;;;4924587;29;20133;-67
2022/05/05 08:09:21;;;;;;;12.00;4.45;;;;;;;;;;4942919;29;20052;-67
2022/05/05 08:11:48;;;;;;;12.40;3.83;;;;;;;;;;4937677;29;20165;-67
2022/05/05 08:14:15;;;;;;;10.68;4.82;;;;;;;;;;4939767;29;20051;-67
2022/05/05 08:16:42;;;;;;;9.95;4.32;;;;;;;;;;4941614;29;20059;-67
2022/05/05 08:19:09;;;;;;;16.27;4.65;;;;;;;;;;4940006;28;20047;-67
2022/05/05 08:21:37;;;;;;;8.80;4.40;;;;;;;;;;4939637;29;20058;-67
2022/05/05 08:29:36;;;;;;;9.45;4.35;;;;;;;;;;4939750;29;20576;-67
2022/05/05 08:32:04;;;;;;;13.50;4.70;;;;;;;;;;4933705;29;20154;-67
2022/05/05 08:34:31;;;;;;;12.77;4.45;;;;;;;;;;4930627;28;20052;-67
2022/05/05 08:36:58;;;;;;;11.75;4.28;;;;;;;;;;4931337;29;20047;-67
2022/05/05 08:39:27;;;;;;;12.65;4.20;;;;;;;;;;4932538;29;20062;-67
2022/05/05 08:41:55;;;;;;;8.73;3.70;;;;;;;;;;4936300;29;20058;-67
2022/05/05 08:44:22;;;;;;;11.25;4.45;;;;;;;;;;4940196;28;20051;-67
2022/05/05 08:46:53;;;;;;;10.82;4.38;;;;;;;;;;4937151;28;20047;-67
2022/05/05 08:49:23;;;;;;;9.88;4.25;;;;;;;;;;4943565;28;20063;-67
2022/05/05 08:51:53;;;;;;;10.13;4.25;;;;;;;;;;4936433;28;20055;-67
2022/05/05 08:54:21;;;;;;;11.63;4.50;;;;;;;;;;4942714;28;20047;-67
2022/05/05 08:56:50;;;;;;;10.95;4.88;;;;;;;;;;4955527;28;20368;-67
2022/05/05 08:59:17;;;;;;;10.18;3.83;;;;;;;;;;4939841;29;20099;-67
2022/05/05 09:01:45;;;;;;;9.55;3.90;;;;;;;;;;4937751;28;20055;-67
2022/05/05 09:04:13;;;;;;;10.40;3.90;;;;;;;;;;4941530;29;20162;-67
2022/05/05 09:06:47;;;;;;;13.52;4.18;;;;;;;;;;4942025;28;20728;-67
2022/05/05 09:09:24;;;;;;;9.57;4.00;;;;;;;;;;4937671;28;20055;-67
2022/05/05 09:12:06;;;;;;;12.98;4.13;;;;;;;;;;4941506;28;20067;-67
2022/05/05 09:14:38;;;;;;;8.60;3.20;;;;;;;;;;4962858;28;20452;-67
2022/05/05 09:17:07;;;;;;;6.32;3.35;;;;;;;;;;4941981;28;20450;-67
2022/05/05 09:19:37;;;;;;;10.10;3.70;;;;;;;;;;4948132;28;20145;-67
2022/05/05 09:22:05;;;;;;;9.80;3.80;;;;;;;;;;4945288;28;20053;-67
2022/05/05 09:27:20;;;;;;;8.32;4.40;;;;;;;;;;4935891;28;20043;-67
2022/05/05 09:30:06;;;;;;;8.88;4.38;;;;;;;;;;4940501;28;20054;-67
2022/05/05 09:32:34;;;;;;;7.25;3.90;;;;;;;;;;4942659;28;20494;-67
2022/05/05 09:35:03;;;;;;;12.55;4.70;;;;;;;;;;4940419;28;20518;-67
2022/05/05 09:37:31;;;;;;;9.23;4.80;;;;;;;;;;4945230;28;20058;-67
2022/05/05 09:39:58;;;;;;;9.38;4.90;;;;;;;;;;4947177;28;20130;-67
2022/05/05 09:42:50;;;;;;;9.80;4.72;;;;;;;;;;4940747;28;20533;-67
2022/05/05 09:45:20;;;;;;;8.75;4.95;;;;;;;;;;4935785;28;20102;-67
2022/05/05 09:47:48;;;;;;;7.80;4.40;;;;;;;;;;4957086;28;20055;-67
2022/05/05 09:50:15;;;;;;;9.00;5.03;;;;;;;;;;4960468;28;20521;-67
2022/05/05 09:58:19;;;;;;;7.45;4.70;;;;;;;;;;4940689;28;20070;-67
2022/05/05 10:00:57;;;;;;;8.32;5.07;;;;;;;;;;4960189;28;20498;-67
2022/05/05 10:06:16;;;;;;;8.52;5.20;;;;;;;;;;4939411;28;20105;-67
2022/05/05 10:08:46;;;;;;;14.20;6.82;;;;;;;;;;4940227;29;20142;-67
2022/05/05 10:11:14;;;;;;;11.13;6.53;;;;;;;;;;4935038;28;20091;-67
2022/05/05 10:13:41;;;;;;;13.45;6.70;;;;;;;;;;4947500;28;20047;-67
2022/05/05 10:16:10;;;;;;;10.73;6.25;;;;;;;;;;4934876;29;20110;-67
2022/05/05 10:18:38;;;;;;;11.23;5.93;;;;;;;;;;4943295;29;20066;-67
2022/05/05 10:21:06;;;;;;;10.68;7.03;;;;;;;;;;4941581;29;20106;-67
2022/05/05 10:23:42;;;;;;;11.55;6.85;;;;;;;;;;4937880;29;20055;-68
2022/05/05 10:26:10;;;;;;;14.98;7.47;;;;;;;;;;4939692;29;20094;-67
2022/05/05 10:28:38;;;;;;;11.25;6.70;;;;;;;;;;4942244;29;20058;-67
2022/05/05 10:31:05;;;;;;;13.60;8.18;;;;;;;;;;4941083;28;20422;-67
2022/05/05 10:33:47;;;;;;;12.32;8.35;;;;;;;;;;4942830;29;20047;-67
2022/05/05 10:36:26;;;;;;;14.50;8.50;;;;;;;;;;4938034;28;20306;-68
2022/05/05 10:38:53;;;;;;;14.23;8.63;;;;;;;;;;4936815;28;20055;-68
2022/05/05 10:41:36;;;;;;;15.48;8.98;;;;;;;;;;4939587;29;20055;-68
2022/05/05 10:44:03;;;;;;;;;;;;;;;;;;4943807;29;20494;-67
2022/05/05 10:46:45;;;;;;;14.07;9.27;;;;;;;;;;4940398;28;19927;-68
2022/05/05 10:49:27;;;;;;;17.60;9.85;;;;;;;;;;4940745;29;20756;-68
2022/05/05 10:52:10;;;;;;;17.20;9.70;;;;;;;;;;4948912;28;20047;-68
2022/05/05 10:54:38;;;;;;;17.17;10.20;;;;;;;;;;4939540;29;20059;-68
2022/05/05 10:57:20;;;;;;;19.88;10.68;;;;;;;;;;4943836;29;20114;-68
2022/05/05 11:00:06;;;;;;;22.23;12.40;;;;;;;;;;4935554;29;20055;-68
2022/05/05 11:02:34;;;;;;;20.55;11.90;;;;;;;;;;4941234;29;20047;-68
2022/05/05 11:05:16;;;;;;;16.02;11.68;;;;;;;;;;4946223;28;20067;-68
2022/05/05 11:07:44;;;;;;;20.15;11.88;;;;;;;;;;4937208;28;20530;-68
2022/05/05 11:10:42;;;;;;;16.40;11.23;;;;;;;;;;4943704;28;20055;-68
2022/05/05 11:13:30;;;;;;;21.45;12.52;;;;;;;;;;4940849;28;20059;-68
2022/05/05 11:21:35;;;;;;;24.67;15.70;;;;;;;;;;4956208;28;20108;-68
2022/05/05 11:24:04;;;;;;;22.08;14.98;;;;;;;;;;4944741;28;20055;-68
2022/05/05 11:26:33;;;;;;;22.08;15.55;;;;;;;;;;4940669;28;20150;-68
2022/05/05 11:29:00;;;;;;;23.02;16.08;;;;;;;;;;4945293;29;20063;-68
2022/05/05 11:31:30;;;;;;;24.10;17.35;;;;;;;;;;4942469;28;20505;-68
2022/05/05 11:33:58;;;;;;;25.88;17.40;;;;;;;;;;4943099;28;20510;-68
2022/05/05 11:36:29;;;;;;;22.48;15.52;;;;;;;;;;4937620;28;20063;-68
2022/05/05 11:38:57;;;;;;;23.50;15.82;;;;;;;;;;4943963;28;20089;-68
2022/05/05 11:41:24;;;;;;;25.88;16.10;;;;;;;;;;4944482;29;20460;-68
2022/05/05 11:46:38;;;;;;;22.90;15.25;;;;;;;;;;4939939;29;20054;-68
2022/05/05 11:49:06;;;;;;;20.30;15.10;;;;;;;;;;4944114;29;20078;-68
2022/05/05 11:51:34;;;;;;;21.02;15.60;;;;;;;;;;4945197;28;20055;-68
2022/05/05 11:54:02;;;;;;;24.73;15.00;;;;;;;;;;4938955;28;20051;-68
2022/05/05 11:56:29;;;;;;;21.48;15.23;;;;;;;;;;4941361;29;20063;-68
2022/05/05 12:01:54;;;;;;;22.42;15.35;;;;;;;;;;4944664;28;20101;-68
2022/05/05 12:04:22;;;;;;;29.60;18.08;;;;;;;;;;4939851;29;20057;-68
2022/05/05 12:06:50;;;;;;;24.90;15.18;;;;;;;;;;4945290;28;20059;-68
2022/05/05 12:09:17;;;;;;;22.88;16.77;;;;;;;;;;4942406;28;20066;-68
2022/05/05 12:11:44;;;;;;;21.27;14.80;;;;;;;;;;4948454;28;20055;-68
2022/05/05 12:14:13;;;;;;;19.88;15.13;;;;;;;;;;4959067;28;20043;-68
2022/05/05 12:16:40;;;;;;;30.77;16.70;;;;;;;;;;4958650;28;20565;-68
2022/05/05 12:19:12;;;;;;;21.15;14.18;;;;;;;;;;4963230;28;20054;-68
2022/05/05 12:21:39;;;;;;;82.43;25.48;;;;;;;;;;4944900;28;20501;-68
2022/05/05 12:24:07;;;;;;;21.67;14.32;;;;;;;;;;4945324;28;20063;-68
2022/05/05 12:26:36;;;;;;;18.73;12.85;;;;;;;;;;4946603;28;20058;-68
2022/05/05 12:29:04;;;;;;;22.35;14.00;;;;;;;;;;4947705;28;20589;-68
2022/05/05 12:31:32;;;;;;;22.40;14.43;;;;;;;;;;4942153;28;20074;-68
2022/05/05 12:33:59;;;;;;;23.38;15.50;;;;;;;;;;4949447;28;20122;-68
2022/05/05 12:36:28;;;;;;;29.27;18.80;;;;;;;;;;4938566;28;20058;-68
2022/05/05 12:39:10;;;;;;;30.50;21.40;;;;;;;;;;4943348;28;20137;-68
2022/05/05 12:41:37;;;;;;;34.35;21.85;;;;;;;;;;4939900;28;20719;-68
2022/05/05 12:44:08;;;;;;;33.28;22.98;;;;;;;;;;4943276;28;20055;-68
2022/05/05 12:46:36;;;;;;;31.85;22.45;;;;;;;;;;4943742;29;20138;-68
2022/05/05 12:49:04;;;;;;;30.98;22.33;;;;;;;;;;4944304;28;20084;-68
2022/05/05 12:51:34;;;;;;;37.90;24.45;;;;;;;;;;4947199;28;20058;-68
2022/05/05 12:59:37;;;;;;;37.03;23.75;;;;;;;;;;4954617;28;20055;-68
2022/05/05 13:02:06;;;;;;;33.20;22.38;;;;;;;;;;4956088;28;20043;-68
2022/05/05 13:04:34;;;;;;;32.17;20.85;;;;;;;;;;4946345;28;20083;-68
2022/05/05 13:07:02;;;;;;;32.13;21.92;;;;;;;;;;4944527;28;20101;-68
2022/05/05 13:09:29;;;;;;;29.25;21.10;;;;;;;;;;4942558;28;20047;-68
2022/05/05 13:11:56;;;;;;;30.95;22.63;;;;;;;;;;4941023;28;20051;-68
2022/05/05 13:14:24;;;;;;;30.55;22.45;;;;;;;;;;4959127;28;20054;-68
2022/05/05 13:16:52;;;;;;;29.95;21.48;;;;;;;;;;4958950;28;20054;-68
2022/05/05 13:19:21;;;;;;;36.83;21.60;;;;;;;;;;4946727;28;20061;-68
2022/05/05 13:21:48;;;;;;;32.53;21.85;;;;;;;;;;4941722;28;20172;-68
2022/05/05 13:24:16;;;;;;;30.42;21.88;;;;;;;;;;4944652;28;20050;-68
2022/05/05 13:26:44;;;;;;;33.20;22.23;;;;;;;;;;4938189;28;20494;-68
2022/05/05 13:29:14;;;;;;;31.95;22.70;;;;;;;;;;4954099;28;20058;-68
2022/05/05 13:31:41;;;;;;;30.25;21.30;;;;;;;;;;4960573;28;20074;-68
2022/05/05 13:34:09;;;;;;;33.10;22.05;;;;;;;;;;4940137;28;20059;-68
2022/05/05 13:36:37;;;;;;;34.47;23.63;;;;;;;;;;4952518;28;20106;-68
2022/05/05 13:39:05;;;;;;;33.20;22.88;;;;;;;;;;4938470;28;20051;-68
2022/05/05 13:41:32;;;;;;;34.65;22.90;;;;;;;;;;4932245;28;20133;-68
2022/05/05 13:43:59;;;;;;;33.08;23.42;;;;;;;;;;4956279;28;20106;-68
2022/05/05 13:46:28;;;;;;;30.45;23.08;;;;;;;;;;4939820;28;20322;-68
2022/05/05 13:48:56;;;;;;;35.38;24.23;;;;;;;;;;4939337;28;20113;-68
2022/05/05 13:51:23;;;;;;;34.50;23.40;;;;;;;;;;4941307;28;20077;-68
2022/05/05 13:53:51;;;;;;;41.90;24.33;;;;;;;;;;4940757;28;20142;-68
2022/05/05 13:56:18;;;;;;;32.97;24.65;;;;;;;;;;4941508;28;20063;-68
2022/05/05 13:58:46;;;;;;;31.33;23.33;;;;;;;;;;4941384;28;20062;-68
2022/05/05 14:01:13;;;;;;;29.20;21.80;;;;;;;;;;4963520;28;20042;-68
2022/05/05 14:03:40;;;;;;;31.60;21.55;;;;;;;;;;4944510;28;20051;-68
2022/05/05 14:06:07;;;;;;;26.95;21.55;;;;;;;;;;4964257;28;21050;-70
2022/05/05 14:14:06;;;;;;;31.35;21.83;;;;;;;;;;4959579;28;20130;-70
2022/05/05 14:16:34;;;;;;;27.95;21.90;;;;;;;;;;4940058;28;20051;-70
2022/05/05 14:19:01;;;;;;;33.08;23.48;;;;;;;;;;4944234;28;20497;-70
2022/05/05 14:21:29;;;;;;;31.35;22.05;;;;;;;;;;4935726;28;20105;-70
2022/05/05 14:23:56;;;;;;;29.65;21.88;;;;;;;;;;4946123;28;20059;-70
2022/05/05 14:26:24;;;;;;;31.60;20.02;;;;;;;;;;4944380;28;20113;-70
2022/05/05 14:28:52;;;;;;;25.30;21.55;;;;;;;;;;4940520;28;20058;-70
2022/05/05 14:31:19;;;;;;;27.17;20.00;;;;;;;;;;4963233;28;20150;-70
2022/05/05 14:33:46;;;;;;;27.50;20.27;;;;;;;;;;4939872;28;20114;-70
2022/05/05 14:36:14;;;;;;;31.27;21.27;;;;;;;;;;4964009;28;20106;-70
2022/05/05 14:38:41;;;;;;;25.45;19.95;;;;;;;;;;4939987;28;20058;-70
2022/05/05 14:41:08;;;;;;;27.40;20.10;;;;;;;;;;4946777;28;20145;-70
2022/05/05 14:43:37;;;;;;;27.48;19.55;;;;;;;;;;4946122;28;20050;-70
2022/05/05 14:46:04;;;;;;;25.83;19.00;;;;;;;;;;4944824;28;20117;-70
2022/05/05 14:48:31;;;;;;;22.90;18.65;;;;;;;;;;4962853;28;20055;-70
2022/05/05 14:50:58;;;;;;;26.70;19.35;;;;;;;;;;4948001;28;20062;-70
2022/05/05 14:53:26;;;;;;;29.48;19.58;;;;;;;;;;4943289;28;20067;-70
2022/05/05 14:55:53;;;;;;;24.77;20.05;;;;;;;;;;4964818;28;20051;-70
2022/05/05 14:58:20;;;;;;;25.17;18.88;;;;;;;;;;4958155;28;20042;-70
2022/05/05 15:00:49;;;;;;;23.13;18.33;;;;;;;;;;4945322;28;20054;-70
2022/05/05 15:03:16;;;;;;;21.27;16.83;;;;;;;;;;4941762;28;20082;-70
2022/05/05 15:05:43;;;;;;;22.75;16.05;;;;;;;;;;4945369;28;20067;-70
2022/05/05 15:08:11;;;;;;;20.02;15.73;;;;;;;;;;4948767;28;20118;-70
2022/05/05 15:10:38;;;;;;;21.98;15.98;;;;;;;;;;4959514;28;20057;-70
2022/05/05 15:13:05;;;;;;;17.15;13.30;;;;;;;;;;4955182;28;20043;-70
2022/05/05 15:15:33;;;;;;;19.25;14.70;;;;;;;;;;4959355;28;20059;-70
2022/05/05 15:18:02;;;;;;;16.27;13.57;;;;;;;;;;4946087;28;20077;-70
2022/05/05 15:20:29;;;;;;;21.48;13.88;;;;;;;;;;4945478;28;20520;-70
2022/05/05 15:22:57;;;;;;;20.60;15.70;;;;;;;;;;4942635;28;20054;-70
2022/05/05 15:25:24;;;;;;;18.67;16.10;;;;;;;;;;4942472;28;20394;-70
2022/05/05 15:27:52;;;;;;;21.90;15.13;;;;;;;;;;4938733;28;20134;-70
2022/05/05 15:30:19;;;;;;;25.75;17.25;;;;;;;;;;4944158;28;20058;-70
2022/05/05 15:32:46;;;;;;;26.33;18.02;;;;;;;;;;4941917;28;20055;-70